createdAt,value
2018-09-14T00:01:53.344Z,33.70
2018-09-14T00:04:21.823Z,33.20
2018-09-14T00:06:50.305Z,31.13
2018-09-14T00:09:19.527Z,29.23
2018-09-14T00:11:48.152Z,32.80
2018-09-14T00:14:16.715Z,37.23
2018-09-14T00:16:45.271Z,34.43
2018-09-14T00:19:14.666Z,32.20
2018-09-14T00:21:43.871Z,33.20
2018-09-14T00:24:12.281Z,28.90
2018-09-14T00:26:40.880Z,26.83
2018-09-14T00:29:09.360Z,27.87
2018-09-14T00:31:37.751Z,33.40
2018-09-14T00:34:06.198Z,32.50
2018-09-14T00:36:35.084Z,43.10
2018-09-14T00:39:03.638Z,36.63
2018-09-14T00:41:32.074Z,35.43
2018-09-14T00:44:00.483Z,22.67
2018-09-14T00:46:28.876Z,26.90
2018-09-14T00:48:57.242Z,29.43
2018-09-14T00:51:25.955Z,28.13
2018-09-14T00:53:54.417Z,27.07
2018-09-14T00:56:22.854Z,29.03
2018-09-14T00:58:51.388Z,27.77
2018-09-14T01:01:20.295Z,27.20
2018-09-14T01:03:49.085Z,30.53
2018-09-14T01:06:17.502Z,28.07
2018-09-14T01:08:46.628Z,26.83
2018-09-14T01:11:15.284Z,32.80
2018-09-14T01:13:43.794Z,34.83
2018-09-14T01:16:12.224Z,29.23
2018-09-14T01:18:41.426Z,28.03
2018-09-14T01:21:09.867Z,30.47
2018-09-14T01:23:38.516Z,32.00
2018-09-14T01:26:07.238Z,38.27
2018-09-14T01:28:35.830Z,29.33
2018-09-14T01:31:04.296Z,32.70
2018-09-14T01:33:33.305Z,35.70
2018-09-14T01:36:07.095Z,29.73
2018-09-14T01:38:35.483Z,36.27
2018-09-14T01:41:03.871Z,30.73
2018-09-14T01:43:32.247Z,33.93
2018-09-14T01:46:00.627Z,36.10
2018-09-14T01:48:29.448Z,36.77
2018-09-14T01:50:57.801Z,33.33
2018-09-14T01:53:26.223Z,36.93
2018-09-14T01:55:54.510Z,36.00
2018-09-14T01:58:22.855Z,35.30
2018-09-14T02:00:51.813Z,35.47
2018-09-14T02:03:20.231Z,35.83
2018-09-14T02:05:48.480Z,33.20
2018-09-14T02:08:16.837Z,34.43
2018-09-14T02:10:45.193Z,36.43
2018-09-14T02:13:13.572Z,34.70
2018-09-14T02:15:41.976Z,34.73
2018-09-14T02:18:10.290Z,32.60
2018-09-14T02:20:38.679Z,35.73
2018-09-14T02:23:07.062Z,35.27
2018-09-14T02:25:35.436Z,39.17
2018-09-14T02:28:03.780Z,37.60
2018-09-14T02:30:32.117Z,38.10
2018-09-14T02:33:01.243Z,36.43
2018-09-14T02:35:30.530Z,41.27
2018-09-14T02:37:58.905Z,34.60
2018-09-14T02:40:27.266Z,39.43
2018-09-14T02:42:55.587Z,42.90
2018-09-14T02:45:23.933Z,39.30
2018-09-14T02:47:52.562Z,39.07
2018-09-14T02:50:20.968Z,33.47
2018-09-14T02:52:49.328Z,35.00
2018-09-14T02:55:17.731Z,35.43
2018-09-14T02:57:46.851Z,39.80
2018-09-14T03:00:15.293Z,34.83
2018-09-14T03:02:43.596Z,31.60
2018-09-14T03:05:11.950Z,30.13
2018-09-14T03:07:40.470Z,36.23
2018-09-14T03:10:09.795Z,33.33
2018-09-14T03:12:38.105Z,31.83
2018-09-14T03:15:06.483Z,31.80
2018-09-14T03:17:35.520Z,35.47
2018-09-14T03:20:03.968Z,32.73
2018-09-14T03:22:32.295Z,38.60
2018-09-14T03:25:00.649Z,37.03
2018-09-14T03:27:28.991Z,34.40
2018-09-14T03:29:57.305Z,35.83
2018-09-14T03:32:25.717Z,33.60
2018-09-14T03:34:54.062Z,34.37
2018-09-14T03:37:22.383Z,35.20
2018-09-14T03:39:50.688Z,34.53
2018-09-14T03:42:19.087Z,30.77
2018-09-14T03:44:47.482Z,42.57
2018-09-14T03:47:15.819Z,38.53
2018-09-14T03:49:44.215Z,43.23
2018-09-14T03:52:12.608Z,41.83
2018-09-14T03:54:40.971Z,36.57
2018-09-14T03:57:09.365Z,40.33
2018-09-14T03:59:38.672Z,41.67
2018-09-14T04:02:07.690Z,47.07
2018-09-14T04:04:36.646Z,39.87
2018-09-14T04:07:05.127Z,50.03
2018-09-14T04:09:33.663Z,45.60
2018-09-14T04:12:02.236Z,49.10
2018-09-14T04:14:30.649Z,47.57
2018-09-14T04:16:59.151Z,43.67
2018-09-14T04:19:27.563Z,45.10
2018-09-14T04:21:55.958Z,55.47
2018-09-14T04:24:24.371Z,58.03
2018-09-14T04:26:52.840Z,54.80
2018-09-14T04:29:21.325Z,73.67
2018-09-14T04:31:50.145Z,74.93
2018-09-14T04:34:18.915Z,81.73
2018-09-14T04:36:47.366Z,70.77
2018-09-14T04:39:15.804Z,69.43
2018-09-14T04:41:44.265Z,72.90
2018-09-14T04:44:12.607Z,73.53
2018-09-14T04:46:41.091Z,66.63
2018-09-14T04:49:09.443Z,70.63
2018-09-14T04:51:37.858Z,75.80
2018-09-14T04:54:06.238Z,77.93
2018-09-14T04:56:34.867Z,75.43
2018-09-14T04:59:03.306Z,79.47
2018-09-14T05:01:31.623Z,69.57
2018-09-14T05:03:59.962Z,74.77
2018-09-14T05:06:28.307Z,69.53
2018-09-14T05:08:56.625Z,72.33
2018-09-14T05:11:25.241Z,66.80
2018-09-14T05:13:54.697Z,85.53
2018-09-14T05:16:23.013Z,77.23
2018-09-14T05:18:51.352Z,75.23
2018-09-14T05:21:19.684Z,75.70
2018-09-14T05:23:48.126Z,75.90
2018-09-14T05:26:16.469Z,69.73
2018-09-14T05:28:44.810Z,71.87
2018-09-14T05:31:13.196Z,70.80
2018-09-14T05:33:41.523Z,69.33
2018-09-14T05:36:09.907Z,62.83
2018-09-14T05:38:39.678Z,78.03
2018-09-14T05:41:08.121Z,70.40
2018-09-14T05:43:36.920Z,64.73
2018-09-14T05:46:05.260Z,74.10
2018-09-14T05:48:34.045Z,77.77
2018-09-14T05:51:02.365Z,74.27
2018-09-14T05:53:30.813Z,69.37
2018-09-14T05:55:59.187Z,61.10
2018-09-14T05:58:28.846Z,57.30
2018-09-14T06:00:57.260Z,54.30
2018-09-14T06:03:25.652Z,56.47
2018-09-14T06:05:54.054Z,58.67
2018-09-14T06:08:23.774Z,45.13
2018-09-14T06:10:52.185Z,43.93
2018-09-14T06:13:20.575Z,46.47
2018-09-14T06:15:49.535Z,45.27
2018-09-14T06:18:18.104Z,54.17
2018-09-14T06:20:46.472Z,44.40
2018-09-14T06:23:14.862Z,52.63
2018-09-14T06:25:43.742Z,48.20
2018-09-14T06:28:12.148Z,52.87
2018-09-14T06:30:40.519Z,47.47
2018-09-14T06:33:08.895Z,54.07
2018-09-14T06:35:37.365Z,51.27
2018-09-14T06:38:05.825Z,56.17
2018-09-14T06:40:35.360Z,53.57
2018-09-14T06:43:04.242Z,52.37
2018-09-14T06:45:32.633Z,51.20
2018-09-14T06:48:00.942Z,48.07
2018-09-14T06:50:29.783Z,52.03
2018-09-14T06:52:58.119Z,51.40
2018-09-14T06:55:27.166Z,60.30
2018-09-14T06:57:55.649Z,58.70
2018-09-14T07:00:24.080Z,53.73
2018-09-14T07:02:52.397Z,55.53
2018-09-14T07:05:21.214Z,54.80
2018-09-14T07:07:50.606Z,63.07
2018-09-14T07:10:19.545Z,47.73
2018-09-14T07:12:51.885Z,41.07
2018-09-14T07:15:21.062Z,40.60
2018-09-14T07:17:49.392Z,45.63
2018-09-14T07:20:17.999Z,46.57
2018-09-14T07:22:46.349Z,55.93
2018-09-14T07:25:14.719Z,47.30
2018-09-14T07:27:43.089Z,48.73
2018-09-14T07:30:12.866Z,48.40
2018-09-14T07:32:41.268Z,46.50
2018-09-14T07:35:09.644Z,52.67
2018-09-14T07:37:37.979Z,49.77
2018-09-14T07:40:06.389Z,51.10
2018-09-14T07:42:34.785Z,47.47
2018-09-14T07:45:03.223Z,46.33
2018-09-14T07:47:31.758Z,40.53
2018-09-14T07:50:00.985Z,40.23
2018-09-14T07:52:29.348Z,34.40
2018-09-14T07:54:57.848Z,35.53
2018-09-14T07:57:26.199Z,37.63
2018-09-14T07:59:54.551Z,38.57
2018-09-14T08:02:22.935Z,31.87
2018-09-14T08:04:51.267Z,32.50
2018-09-14T08:07:20.098Z,38.10
2018-09-14T08:09:48.489Z,40.70
2018-09-14T08:12:16.835Z,36.90
2018-09-14T08:14:45.407Z,33.67
2018-09-14T08:17:13.775Z,31.97
2018-09-14T08:19:42.223Z,38.97
2018-09-14T08:22:10.620Z,29.37
2018-09-14T08:24:39.036Z,31.27
2018-09-14T08:27:07.108Z,32.70
2018-09-14T08:29:35.462Z,30.43
2018-09-14T08:32:03.856Z,34.23
2018-09-14T08:34:32.212Z,41.53
2018-09-14T08:37:00.556Z,32.87
2018-09-14T08:39:31.845Z,30.07
2018-09-14T08:42:00.203Z,29.20
2018-09-14T08:44:28.596Z,31.77
2018-09-14T08:46:57.549Z,29.13
2018-09-14T08:49:25.875Z,30.20
2018-09-14T08:51:54.201Z,28.77
2018-09-14T08:54:22.521Z,34.33
2018-09-14T08:56:50.841Z,30.67
2018-09-14T08:59:19.202Z,26.27
2018-09-14T09:01:47.537Z,26.30
2018-09-14T09:04:15.902Z,29.57
2018-09-14T09:06:44.463Z,26.40
2018-09-14T09:09:13.662Z,28.43
2018-09-14T09:11:42.689Z,28.33
2018-09-14T09:14:11.090Z,28.03
2018-09-14T09:16:40.215Z,25.07
2018-09-14T09:19:08.896Z,24.00
2018-09-14T09:21:37.294Z,26.60
2018-09-14T09:24:05.649Z,23.77
2018-09-14T09:26:33.974Z,27.47
2018-09-14T09:29:02.319Z,26.43
2018-09-14T09:31:30.709Z,22.17
2018-09-14T09:33:59.091Z,25.60
2018-09-14T09:36:27.423Z,19.73
2018-09-14T09:38:55.973Z,22.40
2018-09-14T09:41:24.361Z,18.93
2018-09-14T09:43:52.688Z,23.30
2018-09-14T09:46:21.078Z,19.50
2018-09-14T09:48:49.439Z,19.57
2018-09-14T09:51:18.015Z,17.63
2018-09-14T09:53:46.357Z,19.43
2018-09-14T09:56:14.722Z,24.63
2018-09-14T09:58:46.154Z,19.60
2018-09-14T10:01:19.712Z,20.17
2018-09-14T10:03:53.427Z,17.43
2018-09-14T10:06:25.748Z,14.10
2018-09-14T10:08:55.295Z,13.23
2018-09-14T10:11:23.728Z,14.73
2018-09-14T10:13:52.109Z,15.57
2018-09-14T10:16:20.514Z,15.03
2018-09-14T10:18:48.883Z,12.70
2018-09-14T10:21:17.371Z,10.60
2018-09-14T10:23:45.853Z,13.63
2018-09-14T10:26:14.183Z,14.83
2018-09-14T10:28:42.573Z,11.17
2018-09-14T10:31:10.945Z,14.20
2018-09-14T10:33:39.279Z,16.20
2018-09-14T10:36:07.677Z,8.30
2018-09-14T10:38:35.987Z,11.90
2018-09-14T10:41:04.352Z,14.63
2018-09-14T10:43:32.728Z,9.27
2018-09-14T10:46:01.134Z,12.93
2018-09-14T10:48:29.463Z,10.57
2018-09-14T10:50:58.487Z,9.37
2018-09-14T10:53:26.864Z,10.70
2018-09-14T10:55:55.211Z,10.77
2018-09-14T10:58:23.794Z,10.70
2018-09-14T11:00:52.279Z,13.30
2018-09-14T11:03:20.624Z,11.83
2018-09-14T11:05:48.970Z,9.87
2018-09-14T11:08:17.335Z,12.33
2018-09-14T11:10:45.952Z,11.20
2018-09-14T11:13:14.276Z,11.27
2018-09-14T11:15:42.632Z,10.43
2018-09-14T11:18:10.958Z,13.30
2018-09-14T11:20:39.357Z,11.90
2018-09-14T11:23:07.651Z,6.27
2018-09-14T11:25:37.604Z,9.67
2018-09-14T11:28:06.075Z,7.93
2018-09-14T11:30:34.401Z,10.60
2018-09-14T11:33:02.789Z,8.83
2018-09-14T11:35:31.128Z,6.17
2018-09-14T11:38:00.781Z,6.60
2018-09-14T11:40:28.997Z,9.90
2018-09-14T11:42:57.304Z,6.63
2018-09-14T11:45:25.731Z,6.20
2018-09-14T11:47:54.168Z,5.33
2018-09-14T11:50:22.531Z,5.90
2018-09-14T11:52:50.948Z,5.13
2018-09-14T11:55:19.284Z,5.13
2018-09-14T11:57:47.651Z,4.03
2018-09-14T12:00:16.183Z,8.57
2018-09-14T12:02:44.488Z,3.80
2018-09-14T12:05:12.875Z,5.80
2018-09-14T12:07:41.283Z,4.90
2018-09-14T12:10:09.939Z,3.67
2018-09-14T12:12:38.278Z,4.73
2018-09-14T12:15:06.656Z,4.00
2018-09-14T12:17:34.967Z,8.10
2018-09-14T12:20:03.580Z,5.17
2018-09-14T12:22:31.963Z,6.20
2018-09-14T12:25:00.756Z,6.63
2018-09-14T12:27:29.168Z,8.53
2018-09-14T12:29:57.551Z,6.57
2018-09-14T12:32:25.986Z,7.80
2018-09-14T12:34:54.412Z,9.97
2018-09-14T12:37:23.748Z,9.00
2018-09-14T12:39:52.090Z,7.27
2018-09-14T12:42:20.455Z,10.03
2018-09-14T12:44:48.819Z,8.60
2018-09-14T12:47:17.244Z,11.43
2018-09-14T12:49:45.556Z,11.53
2018-09-14T12:52:13.962Z,8.97
2018-09-14T12:54:42.291Z,7.50
2018-09-14T12:57:10.889Z,6.27
2018-09-14T12:59:39.233Z,7.03
2018-09-14T13:02:08.239Z,9.27
2018-09-14T13:04:36.602Z,7.93
2018-09-14T13:07:06.306Z,7.40
2018-09-14T13:09:34.665Z,8.77
2018-09-14T13:12:03.202Z,10.70
2018-09-14T13:14:31.574Z,8.40
2018-09-14T13:17:00.628Z,6.53
2018-09-14T13:19:29.714Z,9.10
2018-09-14T13:21:58.039Z,7.30
2018-09-14T13:24:26.362Z,6.83
2018-09-14T13:26:54.742Z,7.17
2018-09-14T13:29:23.068Z,10.23
2018-09-14T13:31:51.374Z,5.80
2018-09-14T13:34:19.695Z,7.67
2018-09-14T13:36:48.161Z,9.80
2018-09-14T13:39:17.419Z,5.00
2018-09-14T13:41:45.934Z,6.90
2018-09-14T13:44:14.600Z,7.10
2018-09-14T13:46:43.116Z,8.17
2018-09-14T13:49:11.624Z,10.27
2018-09-14T13:51:40.094Z,9.60
2018-09-14T13:54:08.551Z,8.27
2018-09-14T13:56:37.012Z,9.00
2018-09-14T13:59:11.841Z,8.63
2018-09-14T14:01:41.153Z,9.10
2018-09-14T14:04:09.631Z,7.37
2018-09-14T14:06:38.361Z,4.53
2018-09-14T14:09:09.541Z,6.37
2018-09-14T14:11:38.099Z,7.07
2018-09-14T14:14:07.134Z,4.87
2018-09-14T14:16:35.589Z,8.67
2018-09-14T14:19:04.075Z,5.17
2018-09-14T14:21:32.543Z,6.07
2018-09-14T14:24:01.622Z,8.70
2018-09-14T14:26:30.297Z,6.73
2018-09-14T14:28:58.890Z,5.57
2018-09-14T14:31:28.157Z,8.97
2018-09-14T14:33:56.733Z,6.37
2018-09-14T14:36:25.771Z,4.33
2018-09-14T14:38:54.304Z,4.63
2018-09-14T14:41:22.884Z,5.03
2018-09-14T14:43:51.243Z,5.37
2018-09-14T14:46:19.728Z,5.00
2018-09-14T14:48:48.280Z,5.83
2018-09-14T14:51:16.770Z,4.53
2018-09-14T14:53:45.247Z,5.63
2018-09-14T14:56:13.718Z,5.20
2018-09-14T14:58:42.299Z,6.57
2018-09-14T15:01:10.814Z,8.60
2018-09-14T15:03:39.280Z,5.83
2018-09-14T15:06:08.169Z,5.10
2018-09-14T15:08:36.808Z,6.00
2018-09-14T15:11:05.335Z,6.23
2018-09-14T15:13:33.960Z,3.57
2018-09-14T15:16:02.447Z,5.43
2018-09-14T15:18:30.983Z,4.00
2018-09-14T15:20:59.480Z,5.80
2018-09-14T15:23:28.113Z,4.47
2018-09-14T15:25:56.762Z,5.93
2018-09-14T15:28:25.246Z,4.63
2018-09-14T15:30:53.676Z,6.17
2018-09-14T15:33:22.268Z,5.67
2018-09-14T15:35:50.713Z,5.10
2018-09-14T15:38:19.217Z,11.13
2018-09-14T15:40:48.618Z,5.63
2018-09-14T15:43:17.067Z,8.87
2018-09-14T15:45:45.489Z,5.97
2018-09-14T15:48:16.388Z,8.23
2018-09-14T15:50:44.884Z,5.43
2018-09-14T15:53:13.372Z,4.83
2018-09-14T15:55:41.894Z,6.30
2018-09-14T15:58:10.922Z,8.37
2018-09-14T16:00:39.419Z,5.77
2018-09-14T16:03:07.867Z,7.80
2018-09-14T16:05:36.320Z,5.80
2018-09-14T16:08:04.731Z,5.77
2018-09-14T16:10:33.172Z,8.70
2018-09-14T16:13:02.109Z,7.03
2018-09-14T16:15:30.639Z,8.07
2018-09-14T16:17:59.134Z,6.23
2018-09-14T16:20:27.613Z,6.80
2018-09-14T16:22:56.135Z,9.47
2018-09-14T16:25:24.677Z,9.20
2018-09-14T16:27:53.117Z,7.63
2018-09-14T16:30:21.715Z,6.70
2018-09-14T16:32:50.148Z,4.13
2018-09-14T16:35:18.544Z,7.50
2018-09-14T16:37:47.086Z,6.53
2018-09-14T16:40:15.713Z,8.10
2018-09-14T16:42:44.289Z,10.60
2018-09-14T16:45:12.837Z,6.50
2018-09-14T16:47:41.823Z,5.93
2018-09-14T16:50:10.283Z,5.20
2018-09-14T16:52:38.783Z,5.03
2018-09-14T16:55:08.916Z,9.40
2018-09-14T16:57:39.132Z,5.80
2018-09-14T17:00:08.844Z,9.70
2018-09-14T17:02:37.682Z,9.70
2018-09-14T17:05:06.548Z,9.80
2018-09-14T17:07:35.177Z,12.03
2018-09-14T17:10:03.991Z,12.97
2018-09-14T17:12:32.694Z,9.63
2018-09-14T17:15:01.298Z,7.67
2018-09-14T17:17:29.960Z,7.93
2018-09-14T17:19:58.487Z,8.20
2018-09-14T17:22:26.923Z,7.97
2018-09-14T17:24:55.419Z,6.50
2018-09-14T17:27:24.010Z,5.10
2018-09-14T17:29:52.702Z,6.80
2018-09-14T17:32:21.210Z,6.77
2018-09-14T17:34:49.742Z,7.20
2018-09-14T17:37:18.317Z,9.37
2018-09-14T17:39:47.773Z,8.33
2018-09-14T17:42:17.220Z,8.03
2018-09-14T17:44:45.699Z,7.33
2018-09-14T17:47:14.226Z,7.87
2018-09-14T17:49:42.691Z,8.43
2018-09-14T17:52:11.198Z,7.80
2018-09-14T17:54:39.761Z,12.20
2018-09-14T17:57:08.270Z,9.03
2018-09-14T17:59:36.643Z,6.53
2018-09-14T18:02:05.208Z,8.97
2018-09-14T18:04:33.878Z,9.33
2018-09-14T18:07:02.391Z,7.33
2018-09-14T18:09:31.028Z,8.60
2018-09-14T18:11:59.710Z,11.40
2018-09-14T18:14:28.400Z,10.33
2018-09-14T18:16:57.128Z,7.40
2018-09-14T18:19:26.086Z,8.40
2018-09-14T18:21:54.595Z,8.27
2018-09-14T18:24:23.575Z,6.37
2018-09-14T18:26:52.094Z,5.83
2018-09-14T18:29:20.576Z,6.23
2018-09-14T18:31:49.267Z,10.07
2018-09-14T18:34:17.733Z,10.63
2018-09-14T18:36:46.216Z,6.20
2018-09-14T18:39:15.692Z,7.97
2018-09-14T18:41:44.349Z,7.43
2018-09-14T18:44:12.779Z,8.37
2018-09-14T18:46:41.354Z,6.83
2018-09-14T18:49:10.276Z,8.90
2018-09-14T18:51:38.942Z,11.83
2018-09-14T18:54:08.106Z,9.77
2018-09-14T18:56:36.943Z,8.33
2018-09-14T18:59:05.929Z,11.97
2018-09-14T19:01:36.915Z,9.27
2018-09-14T19:04:05.497Z,12.57
2018-09-14T19:06:34.284Z,12.33
2018-09-14T19:09:02.832Z,7.40
2018-09-14T19:11:31.409Z,11.37
2018-09-14T19:13:59.848Z,8.67
2018-09-14T19:16:28.296Z,10.90
2018-09-14T19:18:56.889Z,9.27
2018-09-14T19:21:25.223Z,10.70
2018-09-14T19:23:53.627Z,7.33
2018-09-14T19:26:22.068Z,9.93
2018-09-14T19:28:50.534Z,10.07
2018-09-14T19:31:19.000Z,8.33
2018-09-14T19:33:47.645Z,11.83
2018-09-14T19:36:17.091Z,11.43
2018-09-14T19:38:45.603Z,8.40
2018-09-14T19:41:14.162Z,9.00
2018-09-14T19:43:42.657Z,11.20
2018-09-14T19:46:11.106Z,9.90
2018-09-14T19:48:39.539Z,9.77
2018-09-14T19:51:08.290Z,12.40
2018-09-14T19:53:36.817Z,10.87
2018-09-14T19:56:05.265Z,10.57
2018-09-14T19:58:33.675Z,11.87
2018-09-14T20:01:02.410Z,9.93
2018-09-14T20:03:30.825Z,10.57
2018-09-14T20:05:59.366Z,9.90
2018-09-14T20:08:27.824Z,9.97
2018-09-14T20:10:57.086Z,10.70
2018-09-14T20:13:25.796Z,13.53
2018-09-14T20:15:54.188Z,14.53
2018-09-14T20:18:23.528Z,12.07
2018-09-14T20:20:52.117Z,11.30
2018-09-14T20:23:21.591Z,10.93
2018-09-14T20:25:50.628Z,15.83
2018-09-14T20:28:18.924Z,12.33
2018-09-14T20:30:47.461Z,12.80
2018-09-14T20:33:16.306Z,10.93
2018-09-14T20:35:45.675Z,18.90
2018-09-14T20:38:14.491Z,9.50
2018-09-14T20:40:43.826Z,10.83
2018-09-14T20:43:13.097Z,13.00
2018-09-14T20:45:43.444Z,11.53
2018-09-14T20:48:12.531Z,9.37
2018-09-14T20:50:41.034Z,10.87
2018-09-14T20:53:09.424Z,11.13
2018-09-14T20:55:38.088Z,10.73
2018-09-14T20:58:06.450Z,13.50
2018-09-14T21:00:35.683Z,9.50
2018-09-14T21:03:06.905Z,11.13
2018-09-14T21:05:35.742Z,13.57
2018-09-14T21:08:04.147Z,11.07
2018-09-14T21:10:32.468Z,8.00
2018-09-14T21:13:02.368Z,7.93
2018-09-14T21:15:30.740Z,15.50
2018-09-14T21:17:59.093Z,11.47
2018-09-14T21:20:27.515Z,10.10
2018-09-14T21:22:55.847Z,14.10
2018-09-14T21:25:24.307Z,12.20
2018-09-14T21:27:52.897Z,9.47
2018-09-14T21:30:21.237Z,11.73
2018-09-14T21:32:49.613Z,8.67
2018-09-14T21:35:18.165Z,11.47
2018-09-14T21:37:46.656Z,12.70
2018-09-14T21:40:15.704Z,10.03
2018-09-14T21:42:44.084Z,13.57
2018-09-14T21:45:12.548Z,10.80
2018-09-14T21:47:40.900Z,15.43
2018-09-14T21:50:09.238Z,10.33
2018-09-14T21:52:37.662Z,9.93
2018-09-14T21:55:06.080Z,10.27
2018-09-14T21:57:34.535Z,8.40
2018-09-14T22:00:07.096Z,9.20
2018-09-14T22:02:35.490Z,8.73
2018-09-14T22:05:03.991Z,10.63
2018-09-14T22:07:32.345Z,11.20
2018-09-14T22:10:02.561Z,10.50
2018-09-14T22:12:31.050Z,7.27
2018-09-14T22:14:59.533Z,12.07
2018-09-14T22:17:27.906Z,9.00
2018-09-14T22:19:56.335Z,6.90
2018-09-14T22:22:24.725Z,9.33
2018-09-14T22:24:53.455Z,10.57
2018-09-14T22:27:21.811Z,9.83
2018-09-14T22:29:50.880Z,11.60
2018-09-14T22:32:19.298Z,9.50
2018-09-14T22:34:47.764Z,9.70
2018-09-14T22:37:16.112Z,7.07
2018-09-14T22:39:44.494Z,9.63
2018-09-14T22:42:12.858Z,8.30
2018-09-14T22:44:41.193Z,8.20
2018-09-14T22:47:09.508Z,14.10
2018-09-14T22:49:37.853Z,8.63
2018-09-14T22:52:06.941Z,11.80
2018-09-14T22:54:35.304Z,14.27
2018-09-14T22:57:03.652Z,15.63
2018-09-14T22:59:32.062Z,8.47
2018-09-14T23:02:00.411Z,8.70
2018-09-14T23:04:29.281Z,14.13
2018-09-14T23:06:57.642Z,10.13
2018-09-14T23:09:26.339Z,11.33
2018-09-14T23:11:54.617Z,9.30
2018-09-14T23:14:23.062Z,12.93
2018-09-14T23:16:52.197Z,8.80
2018-09-14T23:19:20.567Z,8.07
2018-09-14T23:21:49.019Z,12.93
2018-09-14T23:24:17.903Z,10.00
2018-09-14T23:26:46.337Z,9.93
2018-09-14T23:29:14.716Z,11.80
2018-09-14T23:31:43.652Z,13.00
2018-09-14T23:34:12.017Z,12.53
2018-09-14T23:36:40.397Z,12.03
2018-09-14T23:39:10.149Z,9.30
2018-09-14T23:41:38.521Z,13.20
2018-09-14T23:44:06.979Z,9.77
2018-09-14T23:46:35.387Z,9.80
2018-09-14T23:49:03.874Z,13.77
2018-09-14T23:51:32.197Z,14.67
2018-09-14T23:54:00.563Z,15.23
2018-09-14T23:56:28.923Z,16.47
2018-09-14T23:58:57.252Z,11.60
